createdAt,value
2017-04-09T00:00:59.987Z,0
2017-04-09T00:02:01.248Z,0
2017-04-09T00:03:02.457Z,0
2017-04-09T00:04:03.701Z,0
2017-04-09T00:05:04.940Z,0
2017-04-09T00:06:06.238Z,0
2017-04-09T00:07:07.455Z,0
2017-04-09T00:08:08.689Z,0
2017-04-09T00:09:10.037Z,0
2017-04-09T00:10:11.283Z,0
2017-04-09T00:11:12.565Z,0
2017-04-09T00:12:13.801Z,0
2017-04-09T00:13:15.128Z,0
2017-04-09T00:14:16.304Z,0
2017-04-09T00:15:17.542Z,0
2017-04-09T00:16:18.775Z,0
2017-04-09T00:17:20.021Z,0
2017-04-09T00:18:21.279Z,0
2017-04-09T00:19:22.616Z,0
2017-04-09T00:20:23.877Z,0
2017-04-09T00:21:25.116Z,0
2017-04-09T00:22:26.355Z,0
2017-04-09T00:23:27.666Z,0
2017-04-09T00:24:28.835Z,0
2017-04-09T00:25:30.117Z,0
2017-04-09T00:26:31.341Z,0
2017-04-09T00:27:32.571Z,0
2017-04-09T00:28:33.859Z,0
2017-04-09T00:29:35.090Z,0
2017-04-09T00:30:36.337Z,0
2017-04-09T00:31:37.571Z,0
2017-04-09T00:32:38.818Z,0
2017-04-09T00:33:40.036Z,0
2017-04-09T00:34:41.315Z,0
2017-04-09T00:35:42.514Z,0
2017-04-09T00:36:43.745Z,0
2017-04-09T00:37:44.986Z,0
2017-04-09T00:38:46.365Z,0
2017-04-09T00:39:47.600Z,0
2017-04-09T00:40:48.842Z,0
2017-04-09T00:41:50.098Z,0
2017-04-09T00:42:51.333Z,0
2017-04-09T00:43:52.576Z,0
2017-04-09T00:44:53.816Z,0
2017-04-09T00:45:55.106Z,0
2017-04-09T00:46:56.388Z,0
2017-04-09T00:47:57.643Z,0
2017-04-09T00:48:58.868Z,0
2017-04-09T00:50:00.155Z,0
2017-04-09T00:51:01.519Z,0
2017-04-09T00:52:02.677Z,0
2017-04-09T00:53:03.900Z,0
2017-04-09T00:54:05.152Z,0
2017-04-09T00:55:06.379Z,0
2017-04-09T00:56:07.611Z,0
2017-04-09T00:57:08.840Z,0
2017-04-09T00:58:10.197Z,0
2017-04-09T00:59:11.521Z,0
2017-04-09T01:00:12.735Z,0
2017-04-09T01:01:13.974Z,0
2017-04-09T01:02:15.215Z,0
2017-04-09T01:03:16.458Z,0
2017-04-09T01:04:17.704Z,0
2017-04-09T01:05:18.935Z,0
2017-04-09T01:06:20.185Z,0
2017-04-09T01:07:21.412Z,0
2017-04-09T01:08:22.651Z,0
2017-04-09T01:09:23.958Z,0
2017-04-09T01:10:25.213Z,0
2017-04-09T01:11:26.436Z,0
2017-04-09T01:12:27.777Z,0
2017-04-09T01:13:29.006Z,0
2017-04-09T01:14:30.247Z,0
2017-04-09T01:15:31.484Z,0
2017-04-09T01:16:32.764Z,0
2017-04-09T01:17:34.038Z,0
2017-04-09T01:18:35.321Z,0
2017-04-09T01:19:36.547Z,0
2017-04-09T01:20:37.826Z,0
2017-04-09T01:21:39.060Z,0
2017-04-09T01:22:40.290Z,0
2017-04-09T01:23:41.550Z,0
2017-04-09T01:24:42.762Z,0
2017-04-09T01:25:43.998Z,0
2017-04-09T01:26:45.234Z,0
2017-04-09T01:27:46.473Z,0
2017-04-09T01:28:47.727Z,0
2017-04-09T01:29:48.939Z,0
2017-04-09T01:30:50.488Z,0
2017-04-09T01:31:51.731Z,0
2017-04-09T01:32:52.986Z,0
2017-04-09T01:33:54.197Z,0
2017-04-09T01:34:55.436Z,0
2017-04-09T01:35:56.702Z,0
2017-04-09T01:36:57.948Z,0
2017-04-09T01:37:59.226Z,0
2017-04-09T01:39:00.455Z,0
2017-04-09T01:40:01.691Z,0
2017-04-09T01:41:02.989Z,0
2017-04-09T01:42:04.222Z,0
2017-04-09T01:43:05.464Z,0
2017-04-09T01:44:06.792Z,0
2017-04-09T01:45:07.973Z,0
2017-04-09T01:46:09.223Z,0
2017-04-09T01:47:10.451Z,0
2017-04-09T01:48:11.743Z,0
2017-04-09T01:49:12.913Z,0
2017-04-09T01:50:14.237Z,0
2017-04-09T01:51:15.450Z,0
2017-04-09T01:52:16.685Z,0
2017-04-09T01:53:17.924Z,0
2017-04-09T01:54:19.151Z,0
2017-04-09T01:55:20.396Z,0
2017-04-09T01:56:21.665Z,0
2017-04-09T01:57:22.903Z,0
2017-04-09T01:58:24.287Z,0
2017-04-09T01:59:25.517Z,0
2017-04-09T02:00:26.834Z,0
2017-04-09T02:01:28.083Z,0
2017-04-09T02:02:29.337Z,0
2017-04-09T02:03:30.617Z,0
2017-04-09T02:04:31.922Z,0
2017-04-09T02:05:33.163Z,0
2017-04-09T02:06:34.391Z,0
2017-04-09T02:07:35.687Z,0
2017-04-09T02:08:36.864Z,0
2017-04-09T02:09:38.103Z,0
2017-04-09T02:10:39.374Z,0
2017-04-09T02:11:40.591Z,0
2017-04-09T02:12:41.810Z,0
2017-04-09T02:13:43.048Z,0
2017-04-09T02:14:44.436Z,0
2017-04-09T02:15:45.755Z,0
2017-04-09T02:16:46.983Z,0
2017-04-09T02:17:48.251Z,0
2017-04-09T02:18:49.460Z,0
2017-04-09T02:19:50.831Z,0
2017-04-09T02:20:52.071Z,0
2017-04-09T02:21:53.313Z,0
2017-04-09T02:22:54.562Z,0
2017-04-09T02:23:55.810Z,0
2017-04-09T02:24:57.058Z,0
2017-04-09T02:25:58.257Z,0
2017-04-09T02:26:59.503Z,0
2017-04-09T02:28:00.724Z,0
2017-04-09T02:29:01.974Z,0
2017-04-09T02:30:03.207Z,0
2017-04-09T02:31:04.446Z,0
2017-04-09T02:32:05.690Z,0
2017-04-09T02:33:06.935Z,0
2017-04-09T02:34:08.179Z,0
2017-04-09T02:35:09.460Z,0
2017-04-09T02:36:10.763Z,0
2017-04-09T02:37:11.998Z,0
2017-04-09T02:38:13.309Z,0
2017-04-09T02:39:14.555Z,0
2017-04-09T02:40:15.916Z,0
2017-04-09T02:41:17.149Z,0
2017-04-09T02:42:18.376Z,0
2017-04-09T02:43:19.633Z,0
2017-04-09T02:44:20.860Z,0
2017-04-09T02:45:22.120Z,0
2017-04-09T02:46:23.362Z,0
2017-04-09T02:47:24.583Z,0
2017-04-09T02:48:25.812Z,0
2017-04-09T02:49:27.037Z,0
2017-04-09T02:50:28.268Z,0
2017-04-09T02:51:29.497Z,0
2017-04-09T02:52:30.736Z,0
2017-04-09T02:53:31.995Z,0
2017-04-09T02:54:33.239Z,0
2017-04-09T02:55:34.453Z,0
2017-04-09T02:56:35.704Z,0
2017-04-09T02:57:36.934Z,0
2017-04-09T02:58:38.171Z,0
2017-04-09T02:59:39.411Z,0
2017-04-09T03:00:40.673Z,0
2017-04-09T03:01:41.906Z,0
2017-04-09T03:02:43.136Z,0
2017-04-09T03:03:44.357Z,0
2017-04-09T03:04:45.604Z,0
2017-04-09T03:05:46.932Z,0
2017-04-09T03:06:48.186Z,0
2017-04-09T03:07:49.437Z,0
2017-04-09T03:08:50.710Z,0
2017-04-09T03:09:51.979Z,0
2017-04-09T03:10:53.245Z,0
2017-04-09T03:11:54.442Z,0
2017-04-09T03:12:55.697Z,0
2017-04-09T03:13:56.949Z,0
2017-04-09T03:14:58.252Z,0
2017-04-09T03:15:59.488Z,0
2017-04-09T03:17:00.741Z,0
2017-04-09T03:18:02.089Z,0
2017-04-09T03:19:03.372Z,0
2017-04-09T03:20:04.602Z,0
2017-04-09T03:21:05.831Z,0
2017-04-09T03:22:07.078Z,0
2017-04-09T03:23:08.295Z,0
2017-04-09T03:24:09.529Z,0
2017-04-09T03:25:10.773Z,0
2017-04-09T03:26:12.120Z,0
2017-04-09T03:27:13.313Z,0
2017-04-09T03:28:14.602Z,0
2017-04-09T03:29:15.848Z,0
2017-04-09T03:30:17.078Z,0
2017-04-09T03:31:18.315Z,0
2017-04-09T03:32:19.625Z,0
2017-04-09T03:33:20.805Z,0
2017-04-09T03:34:22.035Z,0
2017-04-09T03:35:23.276Z,0
2017-04-09T03:36:24.505Z,0
2017-04-09T03:37:25.746Z,0
2017-04-09T03:38:27.070Z,0
2017-04-09T03:39:28.398Z,0
2017-04-09T03:40:29.681Z,0
2017-04-09T03:41:30.909Z,0
2017-04-09T03:42:32.225Z,0
2017-04-09T03:43:33.466Z,0
2017-04-09T03:44:34.705Z,0
2017-04-09T03:45:35.964Z,0
2017-04-09T03:46:37.197Z,0
2017-04-09T03:47:38.433Z,0
2017-04-09T03:48:39.756Z,0
2017-04-09T03:49:40.982Z,0
2017-04-09T03:50:42.235Z,0
2017-04-09T03:51:43.463Z,0
2017-04-09T03:52:44.720Z,0
2017-04-09T03:53:45.950Z,0
2017-04-09T03:54:47.221Z,0
2017-04-09T03:55:48.450Z,0
2017-04-09T03:56:49.689Z,0
2017-04-09T03:57:50.988Z,0
2017-04-09T03:58:52.235Z,0
2017-04-09T03:59:53.462Z,0
2017-04-09T04:00:54.703Z,0
2017-04-09T04:01:55.922Z,0
2017-04-09T04:02:57.181Z,0
2017-04-09T04:03:58.387Z,0
2017-04-09T04:04:59.651Z,0
2017-04-09T04:06:00.877Z,0
2017-04-09T04:07:02.222Z,0
2017-04-09T04:08:03.447Z,0
2017-04-09T04:09:04.686Z,0
2017-04-09T04:10:05.917Z,0
2017-04-09T04:11:07.184Z,4
2017-04-09T04:12:08.381Z,4
2017-04-09T04:13:09.632Z,0
2017-04-09T04:14:10.868Z,0
2017-04-09T04:15:12.107Z,4
2017-04-09T04:16:13.345Z,0
2017-04-09T04:17:14.590Z,4
2017-04-09T04:18:15.897Z,4
2017-04-09T04:19:17.132Z,8
2017-04-09T04:20:18.349Z,8
2017-04-09T04:21:19.608Z,12
2017-04-09T04:22:20.834Z,8
2017-04-09T04:23:22.110Z,12
2017-04-09T04:24:23.359Z,12
2017-04-09T04:25:24.618Z,16
2017-04-09T04:26:25.901Z,20
2017-04-09T04:27:27.143Z,24
2017-04-09T04:28:28.381Z,28
2017-04-09T04:29:29.619Z,32
2017-04-09T04:30:30.868Z,40
2017-04-09T04:31:32.132Z,44
2017-04-09T04:32:33.694Z,52
2017-04-09T04:33:34.828Z,60
2017-04-09T04:34:36.169Z,72
2017-04-09T04:35:37.396Z,80
2017-04-09T04:36:38.630Z,92
2017-04-09T04:37:39.953Z,104
2017-04-09T04:38:41.210Z,120
2017-04-09T04:39:42.536Z,132
2017-04-09T04:40:43.771Z,152
2017-04-09T04:41:45.010Z,168
2017-04-09T04:42:46.257Z,188
2017-04-09T04:43:47.525Z,208
2017-04-09T04:44:48.770Z,228
2017-04-09T04:45:50.010Z,252
2017-04-09T04:46:51.275Z,276
2017-04-09T04:47:52.506Z,304
2017-04-09T04:48:53.758Z,332
2017-04-09T04:49:54.995Z,364
2017-04-09T04:50:56.245Z,392
2017-04-09T04:51:57.483Z,420
2017-04-09T04:52:58.708Z,456
2017-04-09T04:54:00.024Z,492
2017-04-09T04:55:01.262Z,524
2017-04-09T04:56:02.499Z,564
2017-04-09T04:57:03.880Z,616
2017-04-09T04:58:05.136Z,660
2017-04-09T04:59:06.440Z,704
2017-04-09T05:00:07.668Z,752
2017-04-09T05:01:08.917Z,804
2017-04-09T05:02:10.160Z,856
2017-04-09T05:03:11.456Z,908
2017-04-09T05:04:12.641Z,968
2017-04-09T05:05:14.004Z,1020
2017-04-09T05:06:15.231Z,1076
2017-04-09T05:07:16.472Z,1136
2017-04-09T05:08:17.719Z,1196
2017-04-09T05:09:19.060Z,1264
2017-04-09T05:10:20.296Z,1332
2017-04-09T05:11:21.511Z,1408
2017-04-09T05:12:22.739Z,1488
2017-04-09T05:13:23.971Z,1568
2017-04-09T05:14:25.202Z,1648
2017-04-09T05:15:26.448Z,1728
2017-04-09T05:16:27.896Z,1804
2017-04-09T05:17:29.124Z,1888
2017-04-09T05:18:30.382Z,1972
2017-04-09T05:19:31.596Z,2064
2017-04-09T05:20:32.832Z,2156
2017-04-09T05:21:34.094Z,2252
2017-04-09T05:22:35.400Z,2340
2017-04-09T05:23:36.627Z,2420
2017-04-09T05:24:37.832Z,2516
2017-04-09T05:25:39.039Z,2644
2017-04-09T05:26:40.274Z,2764
2017-04-09T05:27:41.513Z,2880
2017-04-09T05:28:42.759Z,2992
2017-04-09T05:29:44.037Z,3120
2017-04-09T05:30:45.276Z,3248
2017-04-09T05:31:46.512Z,3416
2017-04-09T05:32:47.732Z,3580
2017-04-09T05:33:48.978Z,3676
2017-04-09T05:34:50.208Z,3860
2017-04-09T05:35:51.465Z,4020
2017-04-09T05:36:52.800Z,4196
2017-04-09T05:37:54.043Z,4344
2017-04-09T05:38:55.278Z,4540
2017-04-09T05:39:56.737Z,4756
2017-04-09T05:40:57.985Z,4952
2017-04-09T05:41:59.347Z,5124
2017-04-09T05:43:00.526Z,5312
2017-04-09T05:44:01.755Z,5492
2017-04-09T05:45:03.015Z,5680
2017-04-09T05:46:04.236Z,5820
2017-04-09T05:47:05.473Z,5980
2017-04-09T05:48:06.722Z,6144
2017-04-09T05:49:07.964Z,6324
2017-04-09T05:50:09.212Z,6508
2017-04-09T05:51:10.445Z,6728
2017-04-09T05:52:11.681Z,6920
2017-04-09T05:53:12.946Z,7112
2017-04-09T05:54:14.229Z,7328
2017-04-09T05:55:15.516Z,7536
2017-04-09T05:56:16.758Z,7732
2017-04-09T05:57:18.010Z,7916
2017-04-09T05:58:19.254Z,8036
2017-04-09T05:59:20.503Z,8124
2017-04-09T06:00:21.740Z,8264
2017-04-09T06:01:23.017Z,8440
2017-04-09T06:02:24.262Z,8596
2017-04-09T06:03:25.501Z,8716
2017-04-09T06:04:26.746Z,8872
2017-04-09T06:05:28.007Z,9016
2017-04-09T06:06:29.482Z,9164
2017-04-09T06:07:30.839Z,9364
2017-04-09T06:08:32.135Z,9524
2017-04-09T06:09:33.371Z,9672
2017-04-09T06:10:34.664Z,9844
2017-04-09T06:11:35.955Z,10056
2017-04-09T06:12:37.175Z,10248
2017-04-09T06:13:38.411Z,9900
2017-04-09T06:14:39.692Z,9132
2017-04-09T06:15:40.940Z,10128
2017-04-09T06:16:42.202Z,11204
2017-04-09T06:17:43.429Z,11568
2017-04-09T06:18:44.691Z,12000
2017-04-09T06:19:45.949Z,12224
2017-04-09T06:20:47.195Z,12296
2017-04-09T06:21:48.433Z,12224
2017-04-09T06:22:49.676Z,12436
2017-04-09T06:23:50.939Z,12548
2017-04-09T06:24:52.168Z,12724
2017-04-09T06:25:53.490Z,12952
2017-04-09T06:26:54.742Z,13116
2017-04-09T06:27:56.031Z,13364
2017-04-09T06:28:57.280Z,13560
2017-04-09T06:29:58.506Z,13788
2017-04-09T06:30:59.778Z,14064
2017-04-09T06:32:01.039Z,14256
2017-04-09T06:33:02.516Z,14720
2017-04-09T06:34:03.760Z,15296
2017-04-09T06:35:05.011Z,16160
2017-04-09T06:36:06.302Z,16832
2017-04-09T06:37:07.564Z,17376
2017-04-09T06:38:08.801Z,17792
2017-04-09T06:39:10.149Z,18080
2017-04-09T06:40:11.392Z,18528
2017-04-09T06:41:12.640Z,18656
2017-04-09T06:42:13.930Z,19008
2017-04-09T06:43:15.163Z,19264
2017-04-09T06:44:16.706Z,19616
2017-04-09T06:45:17.921Z,19904
2017-04-09T06:46:19.167Z,20352
2017-04-09T06:47:20.420Z,20544
2017-04-09T06:48:21.772Z,20768
2017-04-09T06:49:22.925Z,21056
2017-04-09T06:50:24.304Z,21280
2017-04-09T06:51:25.565Z,21696
2017-04-09T06:52:26.797Z,22048
2017-04-09T06:53:28.222Z,22432
2017-04-09T06:54:29.371Z,22816
2017-04-09T06:55:30.670Z,22976
2017-04-09T06:56:31.916Z,23168
2017-04-09T06:57:33.155Z,23424
2017-04-09T06:58:34.388Z,23808
2017-04-09T06:59:35.638Z,23648
2017-04-09T07:00:36.884Z,24096
2017-04-09T07:01:38.179Z,23936
2017-04-09T07:02:39.422Z,23776
2017-04-09T07:03:40.727Z,24800
2017-04-09T07:04:41.982Z,25536
2017-04-09T07:05:43.231Z,25696
2017-04-09T07:06:44.548Z,26208
2017-04-09T07:07:45.838Z,26336
2017-04-09T07:08:47.077Z,26592
2017-04-09T07:09:48.331Z,27264
2017-04-09T07:10:49.617Z,27168
2017-04-09T07:11:50.890Z,26464
2017-04-09T07:12:52.106Z,27040
2017-04-09T07:13:53.528Z,27968
2017-04-09T07:14:54.684Z,28352
2017-04-09T07:15:55.972Z,28672
2017-04-09T07:16:57.202Z,28896
2017-04-09T07:17:58.452Z,28992
2017-04-09T07:18:59.715Z,28640
2017-04-09T07:20:01.028Z,28896
2017-04-09T07:21:02.269Z,29664
2017-04-09T07:22:03.557Z,30240
2017-04-09T07:23:04.853Z,30304
2017-04-09T07:24:06.097Z,30464
2017-04-09T07:25:07.359Z,30976
2017-04-09T07:26:08.624Z,31104
2017-04-09T07:27:09.869Z,31072
2017-04-09T07:28:11.138Z,31008
2017-04-09T07:29:12.401Z,31520
2017-04-09T07:30:13.672Z,31744
2017-04-09T07:31:14.959Z,31936
2017-04-09T07:32:16.290Z,31168
2017-04-09T07:33:17.529Z,31456
2017-04-09T07:34:18.792Z,32128
2017-04-09T07:35:20.098Z,32704
2017-04-09T07:36:21.326Z,33408
2017-04-09T07:37:22.574Z,34176
2017-04-09T07:38:23.875Z,34016
2017-04-09T07:39:25.133Z,34176
2017-04-09T07:40:26.413Z,35040
2017-04-09T07:41:27.673Z,35168
2017-04-09T07:42:28.950Z,35712
2017-04-09T07:43:30.263Z,37280
2017-04-09T07:44:31.545Z,37056
2017-04-09T07:45:32.895Z,36832
2017-04-09T07:46:34.138Z,36896
2017-04-09T07:47:35.389Z,36704
2017-04-09T07:48:36.669Z,36704
2017-04-09T07:49:37.928Z,37696
2017-04-09T07:50:39.185Z,39104
2017-04-09T07:51:40.433Z,39616
2017-04-09T07:52:41.703Z,38560
2017-04-09T07:53:42.944Z,39712
2017-04-09T07:54:44.229Z,38976
2017-04-09T07:55:45.480Z,39552
2017-04-09T07:56:46.791Z,40480
2017-04-09T07:57:48.048Z,42272
2017-04-09T07:58:49.330Z,43328
2017-04-09T07:59:50.566Z,41312
2017-04-09T08:00:51.819Z,41024
2017-04-09T08:01:53.176Z,43072
2017-04-09T08:02:54.451Z,43968
2017-04-09T08:03:55.700Z,42016
2017-04-09T08:04:56.970Z,41088
2017-04-09T08:05:58.260Z,39552
2017-04-09T08:06:59.510Z,37632
2017-04-09T08:08:00.756Z,37664
2017-04-09T08:09:02.034Z,35968
2017-04-09T08:10:03.377Z,33856
2017-04-09T08:11:04.667Z,33728
2017-04-09T08:12:05.917Z,34912
2017-04-09T08:13:07.166Z,33760
2017-04-09T08:14:08.426Z,33088
2017-04-09T08:15:09.772Z,33056
2017-04-09T08:16:10.951Z,32544
2017-04-09T08:17:12.221Z,31904
2017-04-09T08:18:13.485Z,31488
2017-04-09T08:19:14.758Z,31616
2017-04-09T08:20:16.013Z,31520
2017-04-09T08:21:17.270Z,30976
2017-04-09T08:22:18.534Z,30624
2017-04-09T08:23:19.787Z,31136
2017-04-09T08:24:21.058Z,31616
2017-04-09T08:25:22.360Z,31424
2017-04-09T08:26:23.597Z,31008
2017-04-09T08:27:24.906Z,30880
2017-04-09T08:28:26.163Z,31200
2017-04-09T08:29:27.420Z,31616
2017-04-09T08:30:28.679Z,32128
2017-04-09T08:31:29.951Z,32000
2017-04-09T08:32:31.189Z,31808
2017-04-09T08:33:32.492Z,32256
2017-04-09T08:34:33.735Z,31968
2017-04-09T08:35:35.018Z,32224
2017-04-09T08:36:36.267Z,32480
2017-04-09T08:37:37.517Z,31936
2017-04-09T08:38:38.786Z,32032
2017-04-09T08:39:40.046Z,32992
2017-04-09T08:40:41.314Z,33376
2017-04-09T08:41:42.591Z,33216
2017-04-09T08:42:43.955Z,33024
2017-04-09T08:43:45.268Z,32416
2017-04-09T08:44:46.661Z,31776
2017-04-09T08:45:48.074Z,31232
2017-04-09T08:46:49.328Z,31936
2017-04-09T08:47:50.580Z,32416
2017-04-09T08:48:51.857Z,32480
2017-04-09T08:49:53.104Z,32448
2017-04-09T08:50:54.443Z,32576
2017-04-09T08:51:55.786Z,32704
2017-04-09T08:52:57.047Z,32928
2017-04-09T08:53:58.314Z,33184
2017-04-09T08:54:59.575Z,33568
2017-04-09T08:56:00.861Z,34240
2017-04-09T08:57:02.263Z,34528
2017-04-09T08:58:03.529Z,33984
2017-04-09T08:59:04.778Z,34208
2017-04-09T09:00:06.053Z,35136
2017-04-09T09:01:07.342Z,35232
2017-04-09T09:02:08.600Z,35584
2017-04-09T09:03:09.977Z,35584
2017-04-09T09:04:11.231Z,35712
2017-04-09T09:05:12.473Z,36448
2017-04-09T09:06:13.723Z,36576
2017-04-09T09:07:14.986Z,36448
2017-04-09T09:08:16.302Z,36608
2017-04-09T09:09:17.541Z,37728
2017-04-09T09:10:18.805Z,39232
2017-04-09T09:11:20.067Z,39232
2017-04-09T09:12:21.334Z,39104
2017-04-09T09:13:22.587Z,39360
2017-04-09T09:14:23.867Z,40960
2017-04-09T09:15:25.116Z,42304
2017-04-09T09:16:26.373Z,42784
2017-04-09T09:17:27.662Z,43712
2017-04-09T09:18:28.910Z,44128
2017-04-09T09:19:30.180Z,44128
2017-04-09T09:20:31.467Z,46912
2017-04-09T09:21:32.770Z,48224
2017-04-09T09:22:34.190Z,50048
2017-04-09T09:23:35.466Z,51456
2017-04-09T09:24:36.719Z,52512
2017-04-09T09:25:38.111Z,54368
2017-04-09T09:26:39.334Z,55968
2017-04-09T09:27:40.624Z,56320
2017-04-09T09:28:41.900Z,56096
2017-04-09T09:29:43.156Z,55968
2017-04-09T09:30:44.412Z,58464
2017-04-09T09:31:45.680Z,59904
2017-04-09T09:32:47.068Z,60128
2017-04-09T09:33:48.320Z,61504
2017-04-09T09:34:49.582Z,61664
2017-04-09T09:35:50.840Z,63552
2017-04-09T09:36:52.210Z,65536
2017-04-09T09:37:53.505Z,65696
2017-04-09T09:38:54.735Z,66048
2017-04-09T09:39:55.993Z,65120
2017-04-09T09:40:57.247Z,65344
2017-04-09T09:41:58.522Z,64800
2017-04-09T09:42:59.771Z,63552
2017-04-09T09:44:01.031Z,64160
2017-04-09T09:45:02.523Z,66336
2017-04-09T09:46:03.787Z,69600
2017-04-09T09:47:05.066Z,68768
2017-04-09T09:48:06.354Z,67424
2017-04-09T09:49:07.601Z,68672
2017-04-09T09:50:09.024Z,71264
2017-04-09T09:51:10.293Z,71232
2017-04-09T09:52:11.555Z,71648
2017-04-09T09:53:12.812Z,70656
2017-04-09T09:54:14.096Z,68288
2017-04-09T09:55:15.345Z,66176
2017-04-09T09:56:16.697Z,67520
2017-04-09T09:57:18.006Z,69184
2017-04-09T09:58:19.269Z,66176
2017-04-09T09:59:20.523Z,65696
2017-04-09T10:00:21.839Z,64640
2017-04-09T10:01:23.090Z,64576
2017-04-09T10:02:24.495Z,70752
2017-04-09T10:03:25.754Z,70048
2017-04-09T10:04:27.019Z,64480
2017-04-09T10:05:28.363Z,59968
2017-04-09T10:06:29.547Z,63616
2017-04-09T10:07:30.838Z,68672
2017-04-09T10:08:32.093Z,70080
2017-04-09T10:09:33.360Z,69536
2017-04-09T10:10:34.648Z,70400
2017-04-09T10:11:35.898Z,70976
2017-04-09T10:12:37.177Z,68928
2017-04-09T10:13:38.438Z,66464
2017-04-09T10:14:39.687Z,68256
2017-04-09T10:15:40.955Z,66624
2017-04-09T10:16:42.227Z,67968
2017-04-09T10:17:43.496Z,68416
2017-04-09T10:18:44.769Z,67776
2017-04-09T10:19:46.052Z,56832
2017-04-09T10:20:47.338Z,45344
2017-04-09T10:21:48.706Z,44416
2017-04-09T10:22:49.987Z,51008
2017-04-09T10:23:51.285Z,54848
2017-04-09T10:24:52.589Z,56224
2017-04-09T10:25:53.866Z,58368
2017-04-09T10:26:55.115Z,57600
2017-04-09T10:27:56.377Z,56352
2017-04-09T10:28:57.634Z,53408
2017-04-09T10:29:58.927Z,53888
2017-04-09T10:31:00.171Z,53856
2017-04-09T10:32:01.516Z,53088
2017-04-09T10:33:02.882Z,50336
2017-04-09T10:34:04.098Z,50944
2017-04-09T10:35:05.368Z,55264
2017-04-09T10:36:06.639Z,52320
2017-04-09T10:37:07.913Z,54944
2017-04-09T10:38:09.263Z,54112
2017-04-09T10:39:10.530Z,52128
2017-04-09T10:40:11.785Z,51744
2017-04-09T10:41:13.046Z,41248
2017-04-09T10:42:14.455Z,16200
2017-04-09T10:43:15.809Z,11028
2017-04-09T10:44:17.069Z,10720
2017-04-09T10:45:18.336Z,10644
2017-04-09T10:46:19.606Z,10672
2017-04-09T10:47:20.838Z,10620
2017-04-09T10:48:22.181Z,10556
2017-04-09T10:49:23.557Z,10472
2017-04-09T10:50:24.708Z,10416
2017-04-09T10:51:25.976Z,10400
2017-04-09T10:52:27.256Z,10424
2017-04-09T10:53:28.492Z,10376
2017-04-09T10:54:29.766Z,10252
2017-04-09T10:55:31.071Z,10132
2017-04-09T10:56:32.343Z,10032
2017-04-09T10:57:33.626Z,9968
2017-04-09T10:58:34.846Z,9888
2017-04-09T10:59:36.125Z,9728
2017-04-09T11:00:37.378Z,9580
2017-04-09T11:01:38.694Z,9428
2017-04-09T11:02:39.937Z,9296
2017-04-09T11:03:41.192Z,9216
2017-04-09T11:04:42.446Z,9124
2017-04-09T11:05:43.698Z,8980
2017-04-09T11:06:44.971Z,8852
2017-04-09T11:07:46.271Z,8736
2017-04-09T11:08:47.519Z,8628
2017-04-09T11:09:48.764Z,8504
2017-04-09T11:10:50.016Z,8368
2017-04-09T11:11:51.298Z,8236
2017-04-09T11:12:52.592Z,8192
2017-04-09T11:13:53.843Z,8244
2017-04-09T11:14:55.114Z,8304
2017-04-09T11:15:56.495Z,8316
2017-04-09T11:16:57.740Z,8272
2017-04-09T11:17:58.985Z,8208
2017-04-09T11:19:00.232Z,8148
2017-04-09T11:20:01.619Z,8104
2017-04-09T11:21:02.788Z,8016
2017-04-09T11:22:04.155Z,7908
2017-04-09T11:23:05.388Z,7924
2017-04-09T11:24:06.651Z,7896
2017-04-09T11:25:07.923Z,7824
2017-04-09T11:26:09.164Z,7768
2017-04-09T11:27:10.412Z,7744
2017-04-09T11:28:11.669Z,7728
2017-04-09T11:29:12.911Z,7688
2017-04-09T11:30:14.178Z,7668
2017-04-09T11:31:15.466Z,7600
2017-04-09T11:32:16.832Z,7516
2017-04-09T11:33:18.082Z,7432
2017-04-09T11:34:19.308Z,7384
2017-04-09T11:35:20.560Z,7348
2017-04-09T11:36:21.835Z,7312
2017-04-09T11:37:23.159Z,7268
2017-04-09T11:38:24.396Z,7228
2017-04-09T11:39:25.632Z,7128
2017-04-09T11:40:26.869Z,7044
2017-04-09T11:41:28.127Z,6992
2017-04-09T11:42:29.409Z,6964
2017-04-09T11:43:30.663Z,6960
2017-04-09T11:44:31.921Z,6944
2017-04-09T11:45:33.188Z,6908
2017-04-09T11:46:34.433Z,6844
2017-04-09T11:47:35.675Z,6756
2017-04-09T11:48:36.927Z,6628
2017-04-09T11:49:38.241Z,6528
2017-04-09T11:50:39.475Z,6472
2017-04-09T11:51:40.738Z,6476
2017-04-09T11:52:41.953Z,6528
2017-04-09T11:53:43.200Z,6552
2017-04-09T11:54:44.442Z,6564
2017-04-09T11:55:45.691Z,6544
2017-04-09T11:56:47.082Z,6520
2017-04-09T11:57:48.570Z,6492
2017-04-09T11:58:49.816Z,6496
2017-04-09T11:59:51.069Z,6520
2017-04-09T12:00:52.398Z,6500
2017-04-09T12:01:53.647Z,6440
2017-04-09T12:02:54.952Z,6388
2017-04-09T12:03:56.216Z,6368
2017-04-09T12:04:57.483Z,6328
2017-04-09T12:05:58.729Z,6260
2017-04-09T12:06:59.969Z,6192
2017-04-09T12:08:01.419Z,6124
2017-04-09T12:09:02.716Z,6060
2017-04-09T12:10:04.139Z,5988
2017-04-09T12:11:05.390Z,5920
2017-04-09T12:12:06.639Z,5876
2017-04-09T12:13:07.912Z,5844
2017-04-09T12:14:09.193Z,5836
2017-04-09T12:15:10.432Z,5840
2017-04-09T12:16:11.671Z,5848
2017-04-09T12:17:12.921Z,5856
2017-04-09T12:18:14.169Z,5876
2017-04-09T12:19:15.419Z,5884
2017-04-09T12:20:16.819Z,5864
2017-04-09T12:21:18.060Z,5828
2017-04-09T12:22:19.303Z,5800
2017-04-09T12:23:20.565Z,5772
2017-04-09T12:24:21.804Z,5760
2017-04-09T12:25:23.109Z,5740
2017-04-09T12:26:24.398Z,5724
2017-04-09T12:27:25.681Z,5696
2017-04-09T12:28:26.910Z,5668
2017-04-09T12:29:28.209Z,5656
2017-04-09T12:30:29.426Z,5656
2017-04-09T12:31:30.721Z,5640
2017-04-09T12:32:31.940Z,5624
2017-04-09T12:33:33.205Z,5608
2017-04-09T12:34:34.458Z,5616
2017-04-09T12:35:35.711Z,5624
2017-04-09T12:36:36.967Z,5636
2017-04-09T12:37:38.524Z,5628
2017-04-09T12:38:39.756Z,5616
2017-04-09T12:39:41.171Z,5584
2017-04-09T12:40:42.418Z,5540
2017-04-09T12:41:43.684Z,5476
2017-04-09T12:42:44.918Z,5420
2017-04-09T12:43:46.164Z,5364
2017-04-09T12:44:47.424Z,5328
2017-04-09T12:45:48.695Z,5312
2017-04-09T12:46:49.934Z,5296
2017-04-09T12:47:51.216Z,5296
2017-04-09T12:48:52.452Z,5276
2017-04-09T12:49:53.711Z,5256
2017-04-09T12:50:55.032Z,5244
2017-04-09T12:51:56.261Z,5216
2017-04-09T12:52:57.507Z,5184
2017-04-09T12:53:58.765Z,5132
2017-04-09T12:55:00.055Z,5100
2017-04-09T12:56:01.457Z,5064
2017-04-09T12:57:02.694Z,5052
2017-04-09T12:58:04.154Z,5048
2017-04-09T12:59:05.426Z,5052
2017-04-09T13:00:06.692Z,5052
2017-04-09T13:01:07.933Z,5036
2017-04-09T13:02:09.173Z,5008
2017-04-09T13:03:10.459Z,4992
2017-04-09T13:04:11.692Z,4972
2017-04-09T13:05:12.953Z,4944
2017-04-09T13:06:14.199Z,4936
2017-04-09T13:07:15.547Z,4924
2017-04-09T13:08:16.955Z,4900
2017-04-09T13:09:18.171Z,4904
2017-04-09T13:10:19.402Z,4892
2017-04-09T13:11:20.641Z,4880
2017-04-09T13:12:21.880Z,4876
2017-04-09T13:13:23.200Z,4868
2017-04-09T13:14:24.450Z,4860
2017-04-09T13:15:25.699Z,4836
2017-04-09T13:16:26.955Z,4812
2017-04-09T13:17:28.191Z,4764
2017-04-09T13:18:29.449Z,4668
2017-04-09T13:19:30.847Z,4628
2017-04-09T13:20:32.297Z,4588
2017-04-09T13:21:33.546Z,4592
2017-04-09T13:22:34.798Z,4588
2017-04-09T13:23:36.053Z,4536
2017-04-09T13:24:37.306Z,4512
2017-04-09T13:25:38.655Z,4472
2017-04-09T13:26:39.910Z,4448
2017-04-09T13:27:41.173Z,4432
2017-04-09T13:28:42.421Z,4416
2017-04-09T13:29:43.696Z,4392
2017-04-09T13:30:44.916Z,4372
2017-04-09T13:31:46.263Z,4372
2017-04-09T13:32:47.506Z,4340
2017-04-09T13:33:48.745Z,4304
2017-04-09T13:34:49.997Z,4276
2017-04-09T13:35:51.233Z,4240
2017-04-09T13:36:52.491Z,4192
2017-04-09T13:37:53.740Z,4156
2017-04-09T13:38:54.999Z,4120
2017-04-09T13:39:56.601Z,4096
2017-04-09T13:40:57.751Z,4084
2017-04-09T13:41:58.976Z,4060
2017-04-09T13:43:00.306Z,4024
2017-04-09T13:44:01.576Z,3988
2017-04-09T13:45:02.874Z,3960
2017-04-09T13:46:04.216Z,3936
2017-04-09T13:47:05.442Z,3924
2017-04-09T13:48:06.937Z,3912
2017-04-09T13:49:08.232Z,3900
2017-04-09T13:50:09.506Z,3884
2017-04-09T13:51:10.822Z,3872
2017-04-09T13:52:12.086Z,3876
2017-04-09T13:53:13.356Z,3884
2017-04-09T13:54:14.666Z,3900